Time;durP1;ratioP1;P1;durP2;ratioP2;P2;SDS_P1;SDS_P2;PMS_P1;PMS_P2;Temp;Humidity;BMP_temperature;BMP_pressure;BME280_temperature;BME280_humidity;BME280_pressure;Samples;Min_cycle;Max_cycle;Signal;HPM_P1;HPM_P2
2023/06/09 00:02:18;;;;;;;8.20;7.40;;;20.90;78.50;;;20.77;56.18;100974.13;5029629;28;20230;-71
2023/06/09 00:04:46;;;;;;;8.17;7.47;;;20.80;78.10;;;20.77;56.39;100978.72;5029914;28;20231;-70
2023/06/09 00:07:15;;;;;;;8.30;7.50;;;20.70;78.20;;;20.73;56.84;100984.59;5029418;28;20294;-71
2023/06/09 00:09:44;;;;;;;7.93;7.20;;;20.70;78.60;;;20.71;56.24;100981.28;5029605;28;20293;-70
2023/06/09 00:12:14;;;;;;;8.67;7.37;;;20.70;78.70;;;20.66;56.66;100978.38;5029406;28;20306;-70
2023/06/09 00:14:42;;;;;;;8.30;7.57;;;20.70;78.90;;;20.71;56.73;100981.28;5029358;28;20227;-70
2023/06/09 00:17:11;;;;;;;9.03;8.13;;;20.70;79.00;;;20.66;57.31;100978.38;5029216;28;20210;-71
2023/06/09 00:19:41;;;;;;;8.73;7.93;;;20.70;79.40;;;20.62;56.91;100974.41;5029451;28;20203;-70
2023/06/09 00:22:13;;;;;;;8.30;7.53;;;20.60;80.00;;;20.63;57.02;100978.81;5029815;28;20198;-70
2023/06/09 00:24:41;;;;;;;8.00;7.23;;;20.60;80.00;;;20.54;57.66;100973.88;5028542;28;20280;-70
2023/06/09 00:27:10;;;;;;;7.70;6.90;;;20.50;80.30;;;20.50;57.81;100973.47;5029609;28;20238;-71
2023/06/09 00:29:39;;;;;;;11.03;7.87;;;20.50;80.80;;;20.48;57.50;100964.69;5028927;28;20234;-69
2023/06/09 00:32:11;;;;;;;7.83;7.13;;;20.50;80.40;;;20.52;57.29;100973.25;5029194;28;20286;-70
2023/06/09 00:34:39;;;;;;;8.23;6.90;;;20.50;80.40;;;20.50;57.24;100970.75;5029300;28;20722;-71
2023/06/09 00:37:07;;;;;;;11.10;7.77;;;20.50;80.30;;;20.50;57.14;100967.19;5029231;28;20238;-70
2023/06/09 00:39:36;;;;;;;8.07;7.27;;;20.50;80.10;;;20.45;57.68;100970.56;5028785;28;20301;-70
2023/06/09 00:42:05;;;;;;;8.03;7.23;;;20.50;80.80;;;20.43;57.15;100959.09;5028823;28;20229;-70
2023/06/09 00:44:34;;;;;;;8.47;7.57;;;20.40;80.50;;;20.43;57.44;100961.81;5030005;28;20223;-71
2023/06/09 00:47:06;;;;;;;9.13;8.03;;;20.40;80.50;;;20.43;57.78;100960.97;5029143;28;20207;-70
2023/06/09 00:49:36;;;;;;;10.17;7.97;;;20.40;80.70;;;20.40;57.64;100961.41;5028572;28;20226;-70
2023/06/09 00:52:06;;;;;;;7.93;7.30;;;20.40;81.00;;;20.41;57.77;100966.59;5028960;28;20246;-71
2023/06/09 00:54:35;;;;;;;10.10;8.00;;;20.40;82.10;;;20.39;57.66;100960.56;5028612;28;20321;-70
2023/06/09 00:57:05;;;;;;;8.60;7.80;;;20.40;81.30;;;20.35;57.96;100959.34;5028905;28;20299;-70
2023/06/09 00:59:35;;;;;;;8.47;7.67;;;20.40;81.50;;;20.31;58.09;100962.72;5028912;28;20207;-71
2023/06/09 01:02:07;;;;;;;8.93;7.97;;;20.40;81.80;;;20.27;58.40;100953.31;5028654;28;20276;-70
2023/06/09 01:04:54;;;;;;;9.17;8.30;;;20.30;82.30;;;20.26;58.69;100966.06;5029084;28;20227;-71
2023/06/09 01:07:38;;;;;;;9.13;8.23;;;20.10;82.50;;;20.24;58.88;100962.72;5008916;28;20246;-70
2023/06/09 01:10:16;;;;;;;8.23;7.53;;;20.30;82.80;;;20.17;59.23;100973.63;5008773;28;20314;-70
2023/06/09 01:13:00;;;;;;;9.70;8.00;;;20.20;83.20;;;20.15;58.99;100964.03;5008748;28;20203;-70
2023/06/09 01:15:34;;;;;;;9.63;8.40;;;20.20;83.40;;;20.09;60.12;100964.91;5008815;28;20635;-71
2023/06/09 01:18:12;;;;;;;10.53;8.83;;;20.10;84.20;;;20.05;59.67;100963.66;5008580;28;20218;-70
2023/06/09 01:21:00;;;;;;;9.10;8.30;;;20.10;84.30;;;20.04;59.31;100967.41;5009271;28;20203;-70
2023/06/09 01:23:44;;;;;;;9.27;8.27;;;20.10;84.00;;;20.03;59.70;100960.34;5008580;28;20247;-69
2023/06/09 01:26:15;;;;;;;8.73;7.93;;;20.10;84.70;;;20.03;59.35;100960.34;5009154;28;20188;-70
2023/06/09 01:28:46;;;;;;;9.13;7.90;;;20.10;84.40;;;19.97;59.80;100950.31;5008687;28;20203;-70
2023/06/09 01:31:16;;;;;;;9.23;8.43;;;20.00;84.50;;;19.92;60.25;100955.56;5008776;28;20227;-70
2023/06/09 01:33:46;;;;;;;9.20;8.40;;;20.00;85.20;;;19.97;60.39;100953.03;5008555;28;20231;-70
2023/06/09 01:36:16;;;;;;;10.03;8.47;;;20.00;85.20;;;19.98;60.21;100960.97;5008551;28;20651;-69
2023/06/09 01:38:45;;;;;;;9.70;8.73;;;20.10;85.30;;;20.01;60.56;100963.25;5008613;28;20211;-70
2023/06/09 01:41:14;;;;;;;9.73;8.10;;;20.10;85.80;;;20.02;60.75;100964.09;5008495;28;20735;-70
2023/06/09 01:43:42;;;;;;;10.73;9.63;;;20.10;86.10;;;19.92;60.86;100959.13;5008665;28;20249;-71
2023/06/09 01:46:11;;;;;;;9.70;8.73;;;20.00;87.60;;;19.89;60.61;100964.16;5008662;28;20299;-71
2023/06/09 01:48:47;;;;;;;9.87;8.97;;;19.90;86.70;;;19.88;60.63;100951.63;5008159;28;20207;-69
2023/06/09 01:51:27;;;;;;;9.57;8.70;;;20.00;86.80;;;19.81;61.23;100956.25;5008512;28;20733;-70
2023/06/09 01:54:02;;;;;;;11.00;9.10;;;19.90;87.40;;;19.79;61.13;100961.06;5008257;28;20314;-70
2023/06/09 01:56:39;;;;;;;10.43;9.30;;;19.80;87.50;;;19.77;61.39;100952.28;5008724;28;20222;-70
2023/06/09 01:59:14;;;;;;;10.67;9.67;;;19.80;87.70;;;19.74;61.46;100951.69;5007663;28;20207;-70
2023/06/09 02:01:47;;;;;;;10.70;9.73;;;19.80;87.80;;;19.71;61.63;100954.81;5008914;28;20191;-70
2023/06/09 02:04:18;;;;;;;10.20;9.13;;;19.80;88.20;;;19.71;61.56;100952.13;5008498;28;20223;-69
2023/06/09 02:06:48;;;;;;;10.13;9.23;;;19.80;88.20;;;19.72;61.37;100958.38;5023619;28;20823;-70
2023/06/09 02:09:16;;;;;;;10.40;9.47;;;19.80;88.30;;;19.72;61.49;100942.91;5027591;28;20623;-68
2023/06/09 02:11:52;;;;;;;10.17;9.27;;;19.80;88.30;;;19.76;61.61;100950.63;5027951;28;20219;-70
2023/06/09 02:14:20;;;;;;;11.07;9.97;;;19.90;88.50;;;19.68;61.89;100938.97;5027865;28;20222;-71
2023/06/09 02:16:48;;;;;;;11.10;9.97;;;19.80;88.80;;;19.69;61.91;100959.63;5027823;28;20225;-70
2023/06/09 02:19:18;;;;;;;11.40;10.33;;;19.80;89.10;;;19.65;61.90;100947.53;5027947;28;20211;-70
2023/06/09 02:21:46;;;;;;;10.83;9.93;;;19.80;89.30;;;19.69;62.05;100956.91;5031155;28;20250;-70
2023/06/09 02:24:16;;;;;;;11.40;10.40;;;19.80;89.50;;;19.65;61.96;100955.69;5030424;28;20225;-70
2023/06/09 02:26:44;;;;;;;11.60;10.40;;;19.80;89.50;;;19.65;62.20;100952.97;5031103;28;20743;-71
2023/06/09 02:29:16;;;;;;;11.23;10.10;;;19.80;89.60;;;19.64;62.07;100954.00;5030646;28;20210;-71
2023/06/09 02:31:44;;;;;;;12.40;11.30;;;19.80;89.70;;;19.61;62.37;100956.31;5031250;28;20223;-70
2023/06/09 02:34:12;;;;;;;11.67;10.57;;;19.70;90.00;;;19.60;62.35;100960.91;5031117;28;20685;-71
2023/06/09 02:36:42;;;;;;;12.03;10.83;;;19.70;90.00;;;19.54;62.71;100967.22;5031621;28;20301;-70
2023/06/09 02:39:10;;;;;;;12.23;11.00;;;19.60;90.60;;;19.49;62.88;100964.28;5031252;28;20207;-70
2023/06/09 02:41:38;;;;;;;12.40;11.30;;;19.60;90.40;;;19.49;62.92;100975.16;5031429;28;20237;-69
2023/06/09 02:44:06;;;;;;;12.47;10.77;;;19.60;90.50;;;19.47;62.84;100971.81;5031488;28;20384;-70
2023/06/09 02:46:39;;;;;;;11.93;10.80;;;19.60;90.50;;;19.47;63.28;100960.97;5031280;28;20210;-70
2023/06/09 02:49:07;;;;;;;11.87;10.87;;;19.60;90.60;;;19.47;62.82;100965.56;5031197;28;20249;-71
2023/06/09 02:51:36;;;;;;;12.37;11.27;;;19.60;90.60;;;19.43;63.36;100970.56;5031416;28;20241;-70
2023/06/09 02:54:04;;;;;;;12.60;11.37;;;19.60;90.90;;;19.41;63.51;100967.25;5030843;28;20292;-70
2023/06/09 02:56:32;;;;;;;12.90;11.60;;;19.80;91.10;;;19.42;63.65;100968.91;5031162;28;20289;-70
2023/06/09 02:59:01;;;;;;;12.63;11.33;;;19.50;91.10;;;19.36;63.94;100969.72;5030576;28;20297;-70
2023/06/09 03:01:34;;;;;;;12.43;11.33;;;19.50;91.30;;;19.28;63.96;100969.94;5030883;28;20215;-70
2023/06/09 03:04:06;;;;;;;12.50;11.40;;;19.40;91.40;;;19.29;64.01;100974.31;5031003;28;20308;-70
2023/06/09 03:06:35;;;;;;;13.07;11.87;;;19.40;91.40;;;19.25;63.90;100963.06;5030890;28;20206;-70
2023/06/09 03:09:04;;;;;;;11.80;10.60;;;19.40;91.40;;;19.27;63.67;100964.72;5030418;28;20585;-71
2023/06/09 03:11:32;;;;;;;13.53;11.07;;;19.40;91.40;;;19.27;63.62;100970.16;5029556;28;20302;-70
2023/06/09 03:14:00;;;;;;;12.13;10.93;;;19.40;91.30;;;19.29;63.30;100966.19;5030847;28;20241;-70
2023/06/09 03:16:28;;;;;;;12.53;11.27;;;19.50;91.20;;;19.17;63.25;100976.88;5030350;28;20641;-70
2023/06/09 03:18:56;;;;;;;11.77;10.57;;;19.30;90.90;;;19.19;63.03;100977.47;5030504;28;20217;-70
2023/06/09 03:21:26;;;;;;;11.77;10.70;;;19.30;91.00;;;19.17;63.26;100976.03;5030803;28;20230;-69
2023/06/09 03:23:54;;;;;;;12.33;11.07;;;19.30;91.20;;;19.15;62.93;100984.38;5029990;28;20323;-70
2023/06/09 03:26:23;;;;;;;13.37;10.80;;;19.30;91.00;;;19.19;62.94;100973.91;5030775;28;20218;-71
2023/06/09 03:28:52;;;;;;;11.53;10.43;;;19.30;90.90;;;19.16;62.81;100977.91;5030157;28;20209;-70
2023/06/09 03:31:22;;;;;;;11.30;10.00;;;19.30;90.90;;;19.13;62.92;100985.63;5030321;28;20682;-70
2023/06/09 03:33:50;;;;;;;12.40;10.23;;;19.30;90.90;;;19.13;62.86;100991.06;5030065;28;20222;-70
2023/06/09 03:36:18;;;;;;;11.30;10.10;;;19.30;91.00;;;19.12;63.07;100995.66;5030682;28;20195;-70
2023/06/09 03:38:48;;;;;;;11.03;9.93;;;19.30;91.00;;;19.07;62.33;100997.31;5030127;28;20233;-70
2023/06/09 03:41:16;;;;;;;11.90;10.07;;;19.30;90.70;;;19.12;62.72;100994.81;5030123;28;20293;-70
2023/06/09 03:43:44;;;;;;;11.20;10.10;;;19.30;90.70;;;19.13;62.37;100996.47;5030193;28;20313;-70
2023/06/09 03:46:12;;;;;;;14.53;9.93;;;19.30;90.60;;;19.14;61.77;101001.69;5029764;28;20581;-70
2023/06/09 03:48:41;;;;;;;11.27;9.33;;;19.30;90.20;;;19.14;61.33;100998.16;5029977;28;20230;-70
2023/06/09 03:51:09;;;;;;;10.57;9.50;;;19.30;90.00;;;19.14;60.92;100995.44;5029547;28;20326;-70
2023/06/09 03:53:37;;;;;;;10.67;9.47;;;19.30;90.00;;;19.10;60.77;101000.47;5029986;28;20234;-70
2023/06/09 03:56:07;;;;;;;10.47;9.47;;;19.20;89.20;;;19.11;61.33;100995.88;5030326;28;20233;-70
2023/06/09 03:58:36;;;;;;;10.93;9.50;;;19.30;90.00;;;19.05;61.14;100992.09;5029576;28;20210;-70
2023/06/09 04:01:10;;;;;;;11.67;10.47;;;19.30;89.70;;;19.10;60.60;101005.06;5030094;28;20211;-70
2023/06/09 04:03:38;;;;;;;10.67;9.53;;;19.20;89.50;;;19.11;60.97;101006.72;5029793;28;20258;-71
2023/06/09 04:06:07;;;;;;;11.23;10.07;;;19.30;89.40;;;19.08;61.07;101007.97;5029687;28;20207;-70
2023/06/09 04:08:35;;;;;;;10.70;9.60;;;19.20;89.70;;;19.08;61.37;101009.84;5029208;28;20254;-70
2023/06/09 04:11:03;;;;;;;12.87;9.63;;;19.20;90.00;;;19.07;60.84;101010.91;5029435;28;20259;-70
2023/06/09 04:13:32;;;;;;;11.20;10.03;;;19.20;89.20;;;19.04;61.29;101011.31;5029242;28;20226;-70
2023/06/09 04:16:00;;;;;;;10.50;9.53;;;19.20;89.60;;;18.99;61.43;101016.53;5029179;28;20659;-70
2023/06/09 04:18:29;;;;;;;10.53;9.53;;;19.20;90.10;;;18.97;61.46;101002.34;5029480;28;20409;-70
2023/06/09 04:20:57;;;;;;;10.77;9.77;;;19.10;90.20;;;18.95;61.15;100998.97;5029315;28;20750;-70
2023/06/09 04:23:27;;;;;;;11.87;9.63;;;19.10;89.90;;;18.94;61.67;101002.75;5029043;28;20296;-70
2023/06/09 04:25:56;;;;;;;11.20;10.10;;;19.60;90.20;;;18.93;61.31;101006.50;5029433;28;20206;-70
2023/06/09 04:28:24;;;;;;;11.40;9.70;;;19.10;90.00;;;18.91;61.64;101006.69;5028859;28;20301;-71
2023/06/09 04:30:57;;;;;;;11.67;10.47;;;19.10;90.10;;;18.91;61.66;101000.44;5029612;28;20261;-70
2023/06/09 04:33:26;;;;;;;11.50;10.20;;;19.10;90.20;;;18.87;61.23;101002.72;5029024;28;20231;-69
2023/06/09 04:35:54;;;;;;;10.97;9.30;;;19.10;90.00;;;18.88;61.23;101003.56;5029180;28;20578;-71
2023/06/09 04:38:24;;;;;;;13.33;9.80;;;19.10;90.10;;;18.88;61.73;100998.16;5028614;28;20289;-70
2023/06/09 04:40:52;;;;;;;11.80;10.00;;;19.00;90.10;;;18.87;61.58;101001.94;5029204;28;20245;-70
2023/06/09 04:43:20;;;;;;;11.50;9.97;;;19.10;90.10;;;18.86;61.96;101011.09;5028810;28;20322;-70
2023/06/09 04:45:55;;;;;;;11.17;9.80;;;19.10;90.30;;;18.86;61.37;101000.25;5029148;28;20272;-71
2023/06/09 04:48:24;;;;;;;11.47;9.70;;;19.10;90.10;;;18.86;62.09;101006.50;5028866;28;20210;-70
2023/06/09 04:50:52;;;;;;;11.83;9.13;;;19.00;90.40;;;18.84;62.37;101000.44;5028428;28;20301;-70
2023/06/09 04:53:20;;;;;;;12.00;10.73;;;19.00;90.50;;;18.78;61.52;100997.72;5028795;28;20277;-70
2023/06/09 04:55:52;;;;;;;16.13;9.83;;;19.00;90.30;;;18.79;62.46;101007.53;5029162;28;20238;-70
2023/06/09 04:58:20;;;;;;;16.37;10.40;;;19.00;90.50;;;18.78;62.24;101004.00;5028576;28;20216;-70
2023/06/09 05:00:48;;;;;;;18.83;10.93;;;19.00;90.60;;;18.79;62.92;101004.81;5029022;28;20306;-71
2023/06/09 05:03:18;;;;;;;19.67;11.30;;;19.00;90.70;;;18.70;62.46;101006.88;5028594;28;20306;-70
2023/06/09 05:05:47;;;;;;;23.40;9.83;;;18.90;90.80;;;18.68;62.89;101008.97;5029024;28;20202;-70
2023/06/09 05:08:16;;;;;;;17.23;11.33;;;18.90;90.90;;;18.69;63.35;101002.53;5028507;28;20285;-70
2023/06/09 05:10:44;;;;;;;14.10;10.57;;;18.90;91.20;;;18.69;63.17;101006.09;5028783;28;20214;-70
2023/06/09 05:13:12;;;;;;;11.53;10.40;;;18.90;91.10;;;18.58;63.13;101009.38;5028841;28;20227;-71
2023/06/09 05:19:22;;;;;;;12.13;10.13;;;19.20;91.40;;;18.62;63.55;101010.66;5028119;28;20725;-71
2023/06/09 05:21:56;;;;;;;13.77;11.30;;;18.80;91.50;;;18.56;63.46;101014.16;5030626;28;20206;-71
2023/06/09 05:24:24;;;;;;;10.50;9.47;;;18.80;91.30;;;18.54;63.21;101020.84;5028555;28;20265;-71
2023/06/09 05:26:52;;;;;;;13.33;9.63;;;18.80;91.20;;;18.53;62.74;101021.88;5028231;28;20675;-71
2023/06/09 05:29:21;;;;;;;13.83;9.17;;;18.80;91.20;;;18.52;63.28;101023.78;5028209;28;20687;-71
2023/06/09 05:31:49;;;;;;;14.17;8.90;;;18.80;91.40;;;18.55;62.59;101026.06;5028527;28;20317;-71
2023/06/09 05:34:17;;;;;;;13.17;8.80;;;18.80;91.00;;;18.54;62.94;101018.97;5027577;28;20222;-70
2023/06/09 05:36:45;;;;;;;11.57;8.67;;;18.80;91.00;;;18.52;61.10;101022.94;5028676;28;20253;-71
2023/06/09 05:39:15;;;;;;;11.90;8.53;;;18.80;90.30;;;18.56;60.98;101030.44;5028050;28;20297;-70
2023/06/09 05:41:44;;;;;;;10.13;8.07;;;18.80;89.90;;;18.49;59.83;101032.25;5028699;28;20298;-71
2023/06/09 05:44:12;;;;;;;8.37;7.57;;;18.70;88.20;;;18.50;58.49;101033.97;5028277;28;20254;-70
2023/06/09 05:46:40;;;;;;;8.60;7.80;;;18.80;87.40;;;18.53;58.57;101036.28;5028790;28;20211;-71
2023/06/09 05:49:08;;;;;;;9.13;7.37;;;18.80;86.90;;;18.38;58.18;101035.59;5028139;28;20207;-70
2023/06/09 05:51:36;;;;;;;9.60;7.80;;;18.60;85.70;;;18.44;58.91;101032.06;5028264;28;20258;-71
2023/06/09 05:54:06;;;;;;;8.30;7.40;;;18.60;86.80;;;18.48;59.22;101046.03;5029096;28;20268;-69
2023/06/09 05:56:37;;;;;;;9.57;7.17;;;18.70;87.00;;;18.52;58.32;101041.91;5032286;28;20245;-70
2023/06/09 05:59:08;;;;;;;8.77;7.87;;;18.80;86.50;;;18.52;59.34;101041.91;5031985;28;20741;-70
2023/06/09 06:01:36;;;;;;;10.57;8.10;;;18.80;87.00;;;18.51;59.28;101043.78;5031885;28;20646;-71
2023/06/09 06:04:05;;;;;;;11.53;8.20;;;18.80;87.30;;;18.47;58.96;101039.78;5032119;28;20311;-70
2023/06/09 06:06:33;;;;;;;9.20;8.13;;;18.70;87.00;;;18.48;59.04;101038.75;5032231;28;20210;-70
2023/06/09 06:09:01;;;;;;;10.57;8.63;;;18.70;87.20;;;18.51;59.21;101045.66;5031870;28;20293;-70
2023/06/09 06:11:29;;;;;;;14.47;9.40;;;18.80;87.00;;;18.51;60.03;101045.66;5032133;28;20242;-70
2023/06/09 06:13:58;;;;;;;12.23;8.23;;;18.70;87.50;;;18.48;59.11;101046.88;5031795;28;20313;-70
2023/06/09 06:16:27;;;;;;;11.47;7.87;;;18.70;87.30;;;18.46;59.61;101040.81;5031745;28;20768;-71
2023/06/09 06:18:55;;;;;;;12.70;8.53;;;18.70;87.70;;;18.45;59.25;101041.88;5031596;28;20381;-70
2023/06/09 06:21:23;;;;;;;11.60;8.23;;;18.70;87.20;;;18.41;59.04;101037.88;5031831;28;20286;-70
2023/06/09 06:23:51;;;;;;;13.30;7.60;;;18.70;87.00;;;18.49;58.94;101048.53;5032061;28;20313;-70
2023/06/09 06:26:19;;;;;;;13.80;8.07;;;18.80;87.00;;;18.55;59.42;101046.94;5031821;28;20210;-71
2023/06/09 06:28:48;;;;;;;14.37;7.47;;;18.80;87.40;;;18.58;59.53;101058.22;5031693;28;20264;-71
2023/06/09 06:31:17;;;;;;;12.73;7.93;;;18.80;87.40;;;18.63;59.32;101050.28;5032119;28;20249;-71
2023/06/09 06:33:45;;;;;;;13.73;8.20;;;18.90;87.10;;;18.65;59.31;101050.91;5031133;28;20258;-70
2023/06/09 06:36:14;;;;;;;13.53;7.83;;;18.90;87.10;;;18.69;59.15;101040.50;5032238;28;20286;-71
2023/06/09 06:38:42;;;;;;;12.23;7.83;;;18.90;87.20;;;18.71;59.21;101041.94;5031364;28;20215;-72
2023/06/09 06:41:10;;;;;;;13.57;8.60;;;19.00;87.30;;;18.72;59.47;101051.78;5032037;28;20233;-70
2023/06/09 06:43:39;;;;;;;13.40;8.10;;;19.00;87.30;;;18.76;59.52;101048.66;5032963;28;20223;-70
2023/06/09 06:46:07;;;;;;;10.03;6.93;;;19.00;87.40;;;18.77;59.50;101047.63;5031968;28;20301;-71
2023/06/09 06:48:38;;;;;;;11.17;7.80;;;19.00;87.10;;;18.78;59.19;101052.81;5031359;28;20289;-71
2023/06/09 06:51:07;;;;;;;12.37;7.40;;;19.00;87.00;;;18.82;59.11;101054.06;5031459;28;20187;-71
2023/06/09 06:53:38;;;;;;;9.17;7.60;;;19.10;86.80;;;18.78;57.72;101050.09;5031489;28;20293;-70
2023/06/09 06:56:06;;;;;;;8.03;6.67;;;19.00;85.30;;;18.85;58.73;101056.38;5031332;28;20207;-71
2023/06/09 06:58:34;;;;;;;10.77;7.33;;;19.10;86.50;;;18.89;58.62;101059.50;5031233;28;20211;-70
2023/06/09 07:01:04;;;;;;;8.63;7.80;;;19.10;85.50;;;18.90;57.65;101061.19;5031239;28;20264;-71
2023/06/09 07:03:33;;;;;;;8.07;7.27;;;19.10;84.80;;;18.93;57.88;101067.03;5030941;28;20226;-70
2023/06/09 07:06:03;;;;;;;8.93;7.77;;;19.20;85.10;;;18.98;59.74;101058.25;5030805;28;20233;-71
2023/06/09 07:08:31;;;;;;;9.37;7.00;;;19.30;87.10;;;19.01;58.69;101063.25;5030847;28;20234;-71
2023/06/09 07:10:59;;;;;;;9.43;7.77;;;19.30;86.90;;;19.01;57.27;101063.25;5031240;28;20207;-71
2023/06/09 07:13:27;;;;;;;11.10;8.37;;;19.30;84.70;;;19.05;57.22;101067.25;5030764;28;20330;-70
2023/06/09 07:15:55;;;;;;;9.53;7.67;;;19.30;84.50;;;19.09;57.49;101063.91;5030998;28;20250;-71
2023/06/09 07:18:23;;;;;;;9.50;7.23;;;19.40;84.80;;;19.14;57.98;101064.09;5030382;28;20460;-71
2023/06/09 07:20:52;;;;;;;7.47;6.60;;;19.40;85.10;;;19.19;58.59;101060.78;5030677;28;20621;-71
2023/06/09 07:23:21;;;;;;;9.20;7.40;;;19.50;86.10;;;19.22;58.24;101065.78;5031079;28;20318;-71
2023/06/09 07:25:49;;;;;;;10.60;7.37;;;19.50;85.60;;;19.28;58.33;101062.22;5030484;28;20237;-71
2023/06/09 07:28:17;;;;;;;14.67;7.77;;;19.60;85.50;;;19.31;58.46;101069.16;5030597;28;20264;-71
2023/06/09 07:30:49;;;;;;;15.60;9.03;;;19.60;85.60;;;19.36;58.17;101067.47;5030997;28;20687;-71
2023/06/09 07:33:19;;;;;;;13.50;7.73;;;19.70;85.40;;;19.39;57.91;101067.03;5030403;28;20241;-69
2023/06/09 07:35:49;;;;;;;18.50;7.90;;;19.70;85.00;;;19.44;58.00;101069.16;5030564;28;20747;-71
2023/06/09 07:38:17;;;;;;;18.37;7.20;;;19.70;85.00;;;19.50;58.00;101071.03;5030101;28;20293;-71
2023/06/09 07:40:47;;;;;;;16.73;7.63;;;19.80;85.00;;;19.57;58.29;101075.41;5030301;28;20622;-71
2023/06/09 07:43:15;;;;;;;10.93;7.77;;;19.90;85.40;;;19.62;57.54;101078.31;5029217;28;20236;-71
2023/06/09 07:45:43;;;;;;;13.20;8.00;;;19.90;84.70;;;19.68;57.20;101077.50;5030225;28;20245;-71
2023/06/09 07:48:12;;;;;;;11.50;7.53;;;20.00;84.20;;;19.74;56.82;101073.94;5029708;28;20694;-71
2023/06/09 07:50:40;;;;;;;16.03;7.53;;;20.10;83.50;;;19.84;57.10;101078.06;5029831;28;20537;-71
2023/06/09 07:53:26;;;;;;;11.13;7.30;;;20.20;84.20;;;19.89;56.00;101076.41;5030045;28;20235;-70
2023/06/09 07:55:56;;;;;;;11.77;8.23;;;20.20;82.70;;;20.01;56.79;101079.28;5040867;28;20225;-71
2023/06/09 07:58:24;;;;;;;15.30;8.03;;;20.30;83.30;;;20.05;56.64;101069.66;5029764;28;20202;-71
2023/06/09 08:00:53;;;;;;;9.53;7.33;;;20.40;82.90;;;20.14;56.36;101071.94;5029748;28;20210;-71
2023/06/09 08:03:21;;;;;;;10.10;8.40;;;20.40;83.10;;;20.23;55.86;101076.09;5029560;28;20703;-71
2023/06/09 08:05:49;;;;;;;9.20;7.20;;;20.60;82.30;;;20.33;56.59;101086.53;5027028;28;20285;-71
2023/06/09 08:08:17;;;;;;;8.47;7.20;;;20.70;83.00;;;20.37;56.28;101085.06;5023874;28;20222;-72
2023/06/09 08:10:45;;;;;;;9.20;8.07;;;20.70;82.80;;;20.44;55.88;101080.44;5029413;28;20573;-71
2023/06/09 08:13:15;;;;;;;8.57;7.40;;;20.80;81.90;;;20.51;55.85;101081.22;5029389;28;20249;-71
2023/06/09 08:15:45;;;;;;;12.63;8.03;;;20.90;82.00;;;20.57;55.80;101082.25;5029745;28;20207;-71
2023/06/09 08:18:13;;;;;;;11.53;8.63;;;20.90;81.60;;;20.63;55.32;101086.81;5027830;28;20269;-70
2023/06/09 08:20:41;;;;;;;10.27;7.53;;;21.00;81.00;;;20.69;56.49;101083.19;5029663;28;20280;-71
2023/06/09 08:23:10;;;;;;;8.17;7.33;;;21.10;82.30;;;20.71;54.71;101079.25;5029327;28;20235;-71
2023/06/09 08:25:38;;;;;;;9.40;6.63;;;21.10;80.60;;;20.81;55.13;101083.34;5029451;28;20257;-70
2023/06/09 08:28:09;;;;;;;12.17;8.30;;;21.20;81.10;;;20.84;54.55;101085.63;5029247;28;20191;-71
2023/06/09 08:30:39;;;;;;;9.03;7.67;;;21.20;80.40;;;20.94;54.29;101083.25;5028907;28;20207;-70
2023/06/09 08:33:07;;;;;;;9.63;7.60;;;21.30;80.10;;;20.95;55.48;101083.06;5028949;28;20368;-71
2023/06/09 08:35:36;;;;;;;9.73;7.70;;;21.30;81.00;;;21.01;54.99;101078.63;5029442;28;20215;-70
2023/06/09 08:38:04;;;;;;;9.60;7.10;;;21.30;81.10;;;21.12;54.37;101086.09;5029023;28;20211;-71
2023/06/09 08:40:34;;;;;;;9.97;7.50;;;21.40;80.20;;;21.18;54.10;101090.66;5029179;28;20210;-71
2023/06/09 08:43:05;;;;;;;11.77;7.17;;;21.50;79.50;;;21.29;55.52;101083.66;5028863;28;20195;-71
2023/06/09 08:45:35;;;;;;;19.67;7.93;;;21.60;81.30;;;21.29;53.91;101086.41;5029038;28;20969;-71
2023/06/09 08:48:08;;;;;;;9.93;7.47;;;21.60;79.60;;;21.33;55.12;101093.06;5028654;28;20743;-70
2023/06/09 08:50:41;;;;;;;12.07;6.90;;;21.60;81.30;;;21.38;53.25;101096.78;5028955;28;20253;-71
2023/06/09 08:53:10;;;;;;;9.20;6.80;;;21.70;79.00;;;21.41;53.85;101096.34;5029018;28;20789;-71
2023/06/09 08:55:39;;;;;;;11.00;7.77;;;21.70;79.10;;;21.44;52.90;101098.59;5028564;28;20202;-70
2023/06/09 08:58:09;;;;;;;10.33;6.77;;;21.70;77.80;;;21.47;53.09;101100.88;5028327;28;20845;-71
2023/06/09 09:00:39;;;;;;;9.47;7.67;;;21.70;78.40;;;21.51;54.10;101101.28;5028787;28;20195;-71
2023/06/09 09:03:08;;;;;;;10.23;7.07;;;21.80;78.90;;;21.57;54.25;101101.25;5028999;28;20293;-71
2023/06/09 09:05:37;;;;;;;9.57;7.30;;;21.90;79.50;;;21.59;53.29;101099.13;5027415;28;20215;-69
2023/06/09 09:08:05;;;;;;;10.47;7.43;;;21.90;78.50;;;21.57;52.50;101101.25;5026809;28;20222;-71
2023/06/09 09:10:33;;;;;;;11.07;7.23;;;21.80;77.00;;;21.57;51.40;101101.25;5028299;28;20216;-70
2023/06/09 09:13:05;;;;;;;10.37;7.33;;;21.80;76.20;;;21.61;51.96;101105.16;5028689;28;20212;-71
2023/06/09 09:15:33;;;;;;;9.07;6.80;;;21.90;76.50;;;21.65;53.01;101098.22;5028979;28;20281;-71
2023/06/09 09:18:04;;;;;;;14.40;7.90;;;21.90;77.70;;;21.69;53.87;101104.88;5028172;28;20233;-70
2023/06/09 09:20:36;;;;;;;10.33;7.37;;;21.90;79.40;;;21.65;52.48;101103.66;5028671;28;20213;-71
2023/06/09 09:23:05;;;;;;;9.60;7.27;;;21.90;76.70;;;21.65;52.55;101103.66;5028596;28;20195;-71
2023/06/09 09:25:33;;;;;;;11.00;7.50;;;21.90;76.70;;;21.61;51.83;101098.91;5028203;28;20336;-70
2023/06/09 09:28:05;;;;;;;11.33;7.17;;;21.90;76.50;;;21.67;51.49;101101.56;5028164;28;20213;-71
2023/06/09 09:30:50;;;;;;;8.80;7.80;;;21.90;76.20;;;21.66;51.14;101096.31;5028111;28;20211;-70
2023/06/09 09:33:21;;;;;;;9.33;7.57;;;21.90;75.40;;;21.64;51.55;101102.00;5028262;28;20245;-71
2023/06/09 09:35:54;;;;;;;10.03;7.47;;;21.80;75.50;;;21.69;50.34;101096.72;5028565;28;21019;-71
2023/06/09 09:38:25;;;;;;;9.00;7.43;;;21.90;74.50;;;21.69;50.43;101098.59;5028429;28;20226;-72
2023/06/09 09:40:55;;;;;;;9.27;7.27;;;21.90;74.00;;;21.83;50.54;101093.84;5028354;28;20213;-71
2023/06/09 09:43:27;;;;;;;13.10;7.57;;;22.10;74.50;;;21.89;50.99;101092.94;5028653;28;20314;-71
2023/06/09 09:45:57;;;;;;;14.87;8.73;;;22.10;74.50;;;21.98;51.21;101091.63;5028488;28;20206;-71
2023/06/09 09:48:25;;;;;;;11.57;7.37;;;22.30;74.80;;;22.13;49.80;101095.63;5028025;28;20297;-71
2023/06/09 09:50:56;;;;;;;8.80;6.90;;;22.40;73.40;;;22.24;49.63;101091.31;5028196;28;20631;-70
2023/06/09 09:53:25;;;;;;;9.33;8.10;;;22.50;72.60;;;22.20;48.96;101090.09;5028249;28;20313;-71
2023/06/09 09:55:56;;;;;;;10.13;8.20;;;22.40;72.10;;;22.24;49.18;101088.59;5028473;28;20207;-71
2023/06/09 09:58:31;;;;;;;10.50;6.80;;;23.00;72.20;;;22.35;48.61;101087.84;5028438;28;20203;-70
2023/06/09 10:01:04;;;;;;;9.47;7.30;;;22.60;72.30;;;22.44;50.01;101081.00;5028618;28;20237;-71
2023/06/09 10:03:35;;;;;;;10.57;7.57;;;22.60;72.80;;;22.49;48.91;101089.34;5028516;28;20230;-71
2023/06/09 10:06:08;;;;;;;9.40;7.37;;;22.70;71.50;;;22.60;48.95;101091.25;5028075;28;20209;-71
2023/06/09 10:08:40;;;;;;;10.40;7.60;;;22.80;71.90;;;22.60;47.97;101085.00;5027990;28;20238;-70
2023/06/09 10:11:09;;;;;;;7.33;6.63;;;22.80;70.60;;;22.63;48.49;101082.66;5028540;28;20229;-70
2023/06/09 10:13:38;;;;;;;7.73;6.63;;;22.80;71.00;;;22.69;46.66;101086.38;5028279;28;20316;-70
2023/06/09 10:16:10;;;;;;;7.63;6.87;;;22.90;69.10;;;22.68;47.11;101088.25;5028293;28;20225;-70
2023/06/09 10:18:41;;;;;;;9.50;7.17;;;22.80;68.80;;;22.76;46.53;101089.00;5027418;28;20225;-71
2023/06/09 10:21:12;;;;;;;9.07;7.33;;;23.00;68.80;;;22.71;46.15;101089.69;5028234;28;20831;-71
2023/06/09 10:23:41;;;;;;;9.07;6.87;;;22.90;67.50;;;22.69;45.68;101084.47;5028040;28;20227;-71